createdAt,value
2022-09-13T00:01:37.952Z,14.5933
2022-09-13T00:06:38.866Z,14.56229
2022-09-13T00:11:39.925Z,14.5597
2022-09-13T00:16:41.019Z,14.58296
2022-09-13T00:21:42.219Z,14.55001
2022-09-13T00:26:43.228Z,14.52449
2022-09-13T00:31:44.273Z,14.52093
2022-09-13T00:36:45.374Z,14.51189
2022-09-13T00:41:46.733Z,14.59685
2022-09-13T00:46:47.971Z,14.6592
2022-09-13T00:51:49.663Z,14.50963
2022-09-13T00:56:50.889Z,14.43952
2022-09-13T01:01:52.000Z,14.45342
2022-09-13T01:06:52.994Z,14.38137
2022-09-13T01:11:53.997Z,14.33324
2022-09-13T01:16:54.939Z,14.26992
2022-09-13T01:21:55.949Z,14.24795
2022-09-13T01:26:56.908Z,14.21306
2022-09-13T01:31:57.975Z,14.43403
2022-09-13T01:36:59.067Z,14.23019
2022-09-13T01:41:59.983Z,14.14135
2022-09-13T01:47:00.960Z,14.09741
2022-09-13T01:52:02.339Z,14.04895
2022-09-13T01:57:03.246Z,14.03312
2022-09-13T02:02:04.371Z,14.00792
2022-09-13T02:07:05.351Z,13.97497
2022-09-13T02:12:06.426Z,13.94396
2022-09-13T02:17:07.492Z,13.87806
2022-09-13T02:22:08.365Z,13.8758
2022-09-13T02:27:09.387Z,13.86158
2022-09-13T02:32:10.298Z,13.89582
2022-09-13T02:37:11.336Z,13.86675
2022-09-13T02:42:12.765Z,13.82508
2022-09-13T02:47:13.874Z,13.76402
2022-09-13T02:52:15.103Z,13.69812
2022-09-13T02:57:16.246Z,13.70232
2022-09-13T03:02:18.112Z,13.73236
2022-09-13T03:07:19.192Z,13.7708
2022-09-13T03:12:20.192Z,13.754
2022-09-13T03:17:21.214Z,13.70748
2022-09-13T03:22:22.138Z,13.95204
2022-09-13T03:27:23.134Z,14.01245
2022-09-13T03:32:24.039Z,13.82088
2022-09-13T03:37:24.982Z,13.69682
2022-09-13T03:42:25.953Z,13.6264
2022-09-13T03:47:26.883Z,13.58731
2022-09-13T03:52:27.875Z,13.54337
2022-09-13T03:57:28.831Z,13.53917
2022-09-13T04:02:29.910Z,13.52238
2022-09-13T04:07:30.988Z,13.51172
2022-09-13T04:12:32.039Z,13.48555
2022-09-13T04:17:33.053Z,13.48264
2022-09-13T04:22:34.007Z,13.48975
2022-09-13T04:27:35.053Z,13.51818
2022-09-13T04:32:36.067Z,13.49653
2022-09-13T04:37:37.006Z,13.47456
2022-09-13T04:42:37.992Z,13.48555
2022-09-13T04:47:39.046Z,13.47909
2022-09-13T04:52:39.978Z,13.44323
2022-09-13T04:57:41.015Z,13.55016
2022-09-13T05:02:41.975Z,13.53594
2022-09-13T05:07:42.952Z,13.54919
2022-09-13T05:12:44.209Z,13.5479
2022-09-13T05:17:45.136Z,13.56631
2022-09-13T05:22:46.078Z,13.58279
2022-09-13T05:27:47.152Z,13.6726
2022-09-13T05:32:48.139Z,13.7217
2022-09-13T05:42:49.931Z,14.26572
2022-09-13T05:47:51.121Z,13.97691
2022-09-13T05:52:52.176Z,13.99629
2022-09-13T05:57:53.384Z,14.0034
2022-09-13T06:02:54.420Z,13.68584
2022-09-13T06:07:55.356Z,13.50558
2022-09-13T06:12:56.398Z,13.57794
2022-09-13T06:17:57.445Z,13.54337
2022-09-13T06:22:58.387Z,13.47844
2022-09-13T06:27:59.486Z,13.54531
2022-09-13T06:33:00.651Z,13.62026
2022-09-13T06:38:01.771Z,13.74593
2022-09-13T06:43:02.755Z,13.72073
2022-09-13T06:48:03.748Z,13.62672
2022-09-13T06:53:04.982Z,13.50461
2022-09-13T06:58:06.196Z,13.51753
2022-09-13T07:03:07.197Z,13.50784
2022-09-13T07:08:08.122Z,13.67873
2022-09-13T07:13:09.476Z,13.80569
2022-09-13T07:18:10.712Z,14.29932
2022-09-13T07:23:15.277Z,14.4602
2022-09-13T07:28:16.674Z,14.34228
2022-09-13T07:33:17.695Z,14.53095
2022-09-13T07:43:19.214Z,14.99712
2022-09-13T07:48:20.951Z,15.24587
2022-09-13T07:53:22.322Z,15.52273
2022-09-13T08:58:28.877Z,15.50658
2022-09-13T09:03:29.809Z,16.43086
2022-09-13T09:08:30.825Z,17.18521
2022-09-13T09:13:31.804Z,17.71277
2022-09-13T09:18:32.767Z,18.03229
2022-09-13T09:23:33.705Z,18.11887
2022-09-13T09:28:34.696Z,18.68456
2022-09-13T09:33:35.728Z,18.58215
2022-09-13T09:38:36.752Z,18.80862
2022-09-13T09:43:37.801Z,18.74659
2022-09-13T09:48:38.889Z,18.71396
2022-09-13T09:53:39.967Z,18.5857
2022-09-13T09:58:41.005Z,19.059
2022-09-13T10:03:42.092Z,19.26997
2022-09-13T10:08:43.172Z,19.83599
2022-09-13T10:13:44.111Z,19.6373
2022-09-13T10:18:45.517Z,19.45541
2022-09-13T10:23:46.682Z,19.41438
2022-09-13T10:28:47.751Z,19.52681
2022-09-13T10:33:48.805Z,19.5575
2022-09-13T10:38:50.075Z,19.32747
2022-09-13T10:43:51.270Z,19.23637
2022-09-13T10:48:52.325Z,19.63827
2022-09-13T10:53:53.775Z,20.0237
2022-09-13T10:58:55.131Z,20.35776
2022-09-13T11:03:56.145Z,19.81887
2022-09-13T11:08:57.190Z,19.51615
2022-09-13T11:13:58.129Z,19.31487
2022-09-13T11:22:42.165Z,19.33038
2022-09-13T11:27:43.226Z,19.23508
2022-09-13T11:32:44.289Z,18.99439
2022-09-13T11:37:45.250Z,18.79441
2022-09-13T11:42:46.253Z,18.64386
2022-09-13T11:47:47.256Z,18.53886
2022-09-13T11:52:48.174Z,18.2943
2022-09-13T11:57:49.327Z,18.16087
2022-09-13T12:02:50.513Z,18.40317
2022-09-13T12:07:51.533Z,18.59992
2022-09-13T12:17:52.967Z,18.74821
2022-09-13T12:22:53.922Z,18.58312
2022-09-13T12:27:54.951Z,18.7621
2022-09-13T12:32:59.027Z,18.66776
2022-09-13T12:38:00.337Z,18.46391
2022-09-13T12:43:01.368Z,18.31433
2022-09-13T12:48:02.461Z,18.13858
2022-09-13T12:53:03.377Z,18.09658
2022-09-13T12:58:04.854Z,18.38023
2022-09-13T13:03:05.916Z,18.80991
2022-09-13T13:08:06.845Z,19.13105
2022-09-13T13:13:08.026Z,19.22829
2022-09-13T13:18:09.175Z,19.56396
2022-09-13T13:23:10.857Z,19.50129
2022-09-13T13:28:11.895Z,19.56719
2022-09-13T13:33:12.990Z,19.32974
2022-09-13T13:38:15.000Z,19.16562
2022-09-13T13:43:15.954Z,19.14882
2022-09-13T13:53:18.092Z,19.40178
2022-09-13T13:58:19.172Z,19.40049
2022-09-13T14:03:20.515Z,19.43053
2022-09-13T14:08:21.583Z,19.7507
2022-09-13T14:13:22.761Z,19.94584
2022-09-13T14:18:23.781Z,19.97976
2022-09-13T14:23:24.778Z,19.88154
2022-09-13T14:28:25.727Z,19.79205
2022-09-13T14:33:26.828Z,19.85053
2022-09-13T14:38:37.989Z,19.76492
2022-09-13T14:43:39.137Z,19.63181
2022-09-13T14:48:40.075Z,19.53392
2022-09-13T14:53:41.174Z,19.62406
2022-09-13T14:58:42.166Z,19.70418
2022-09-13T15:03:43.244Z,19.7255
2022-09-13T15:08:44.526Z,19.76072
2022-09-13T15:13:45.578Z,20.06085
2022-09-13T15:18:46.507Z,20.32448
2022-09-13T15:23:47.504Z,20.24339
2022-09-13T15:28:48.425Z,20.4857
2022-09-13T15:33:49.828Z,20.48473
2022-09-13T15:38:50.906Z,20.36616
2022-09-13T15:43:51.865Z,20.33256
2022-09-13T15:48:52.747Z,20.45016
2022-09-13T15:53:53.729Z,20.26245
2022-09-13T15:58:54.723Z,20.06667
2022-09-13T16:03:55.679Z,19.89188
2022-09-13T16:08:56.644Z,19.77719
2022-09-13T16:13:57.605Z,19.81628
2022-09-13T16:18:58.579Z,19.72065
2022-09-13T16:23:59.578Z,19.64118
2022-09-13T16:29:00.615Z,19.52326
2022-09-13T16:34:01.937Z,19.3853
2022-09-13T16:39:02.981Z,19.36721
2022-09-13T16:44:04.044Z,19.31681
2022-09-13T16:49:05.074Z,19.2312
2022-09-13T16:54:06.112Z,19.13945
2022-09-13T16:59:07.069Z,19.11166
2022-09-13T17:04:08.360Z,19.05965
2022-09-13T17:09:09.259Z,18.97823
2022-09-13T17:14:10.279Z,18.8377
2022-09-13T17:19:11.192Z,18.72721
2022-09-13T17:24:13.707Z,18.6122
2022-09-13T17:29:14.842Z,18.54887
2022-09-13T17:34:15.803Z,18.46003
2022-09-13T17:39:16.763Z,18.3602
2022-09-13T17:44:17.765Z,18.25004
2022-09-13T17:49:18.783Z,18.08527
2022-09-13T17:54:19.963Z,17.99255
2022-09-13T17:59:21.439Z,17.90209
2022-09-13T18:04:22.519Z,17.82779
2022-09-13T18:09:23.620Z,17.75348
2022-09-13T18:14:24.673Z,17.68273
2022-09-13T18:19:44.978Z,17.63136
2022-09-13T18:24:47.166Z,17.59098
2022-09-13T18:29:48.107Z,17.61165
2022-09-13T18:34:49.137Z,17.60099
2022-09-13T18:39:50.155Z,17.56869
2022-09-13T18:44:51.077Z,17.39585
2022-09-13T18:49:51.984Z,17.22204
2022-09-13T18:54:52.904Z,17.08344
2022-09-13T18:59:53.825Z,17.02109
2022-09-13T19:04:54.913Z,16.88444
2022-09-13T19:09:55.929Z,16.74875
2022-09-13T19:14:57.151Z,16.64892
2022-09-13T19:19:58.208Z,16.62146
2022-09-13T19:24:59.167Z,16.5982
2022-09-13T19:30:00.179Z,16.58076
2022-09-13T19:35:01.408Z,16.53682
2022-09-13T19:40:02.555Z,16.50193
2022-09-13T19:45:03.551Z,16.49418
2022-09-13T19:50:04.473Z,16.4861
2022-09-13T19:55:05.612Z,16.50225
2022-09-13T20:00:06.563Z,16.31908
2022-09-13T20:05:07.773Z,16.20827
2022-09-13T20:10:08.948Z,16.09713
2022-09-13T20:15:09.919Z,16.06677
2022-09-13T20:20:10.878Z,16.14236
2022-09-13T20:25:11.940Z,16.14139
2022-09-13T20:30:12.979Z,16.07258
2022-09-13T20:35:14.011Z,15.88682
2022-09-13T20:40:15.078Z,15.83836
2022-09-13T20:45:16.077Z,15.85872
2022-09-13T20:50:17.102Z,15.90071
2022-09-13T20:55:18.046Z,15.91622
2022-09-13T21:00:19.163Z,15.92268
2022-09-13T21:05:20.325Z,15.81316
2022-09-13T21:10:21.617Z,15.80056
2022-09-13T21:15:22.559Z,15.73401
2022-09-13T21:20:23.450Z,15.59122
2022-09-13T21:25:24.442Z,15.58411
2022-09-13T21:30:25.614Z,15.67328
2022-09-13T21:35:26.660Z,15.7198
2022-09-13T21:40:27.730Z,15.71334
2022-09-13T21:45:28.706Z,15.70591
2022-09-13T21:50:29.651Z,15.67813
2022-09-13T21:55:30.577Z,15.58476
2022-09-13T22:00:31.483Z,15.55278
2022-09-13T22:05:32.457Z,15.49043
2022-09-13T22:10:33.403Z,15.44585
2022-09-13T22:15:34.339Z,15.34537
2022-09-13T22:20:35.351Z,15.29498
2022-09-13T22:25:36.341Z,15.18643
2022-09-13T22:30:37.310Z,15.14896
2022-09-13T22:35:38.299Z,15.13216
2022-09-13T22:40:39.310Z,15.0795
2022-09-13T22:45:40.250Z,15.04719
2022-09-13T22:50:41.219Z,15.00261
2022-09-13T22:55:42.182Z,14.83527
2022-09-13T23:00:43.230Z,14.84464
2022-09-13T23:05:44.250Z,14.88599
2022-09-13T23:10:45.579Z,14.81685
2022-09-13T23:15:46.505Z,14.74707
2022-09-13T23:20:47.431Z,14.61171
2022-09-13T23:25:48.461Z,14.51544
2022-09-13T23:30:49.481Z,14.47118
2022-09-13T23:35:50.413Z,14.39268
2022-09-13T23:40:51.365Z,14.34616
2022-09-13T23:45:52.346Z,14.25732
2022-09-13T23:50:53.288Z,14.12358
2022-09-13T23:55:54.267Z,14.04378
